Terminal Aerodrome Forecast
Issued by NWS

Home | Current Version | Previous Version | Text Only | Print | Product List | Glossary On
Versions: 1 2 3 4 5 6 7 8 9 10 11 12 13 14 15 16 17 18 19 20 21
000
FTPA31 PHFO 121120
TAFHJR
TAF
PHJR 121120Z 1212/1312 VRB05KT P6SM VCSH SCT025 BKN060
     FM122200 33010KT 5SM -SHRA SCT025 OVC045
      TEMPO 1223/1303 2SM SHRA BR BKN025
     FM130700 34008KT P6SM VCSH SCT025 BKN045=

USA.gov is the U.S. government's official web portal to all federal, state and local government web resources and services.